Tropical Cyclones
[Index]
Main Index Home Page Stock Weather Photos Extreme Storms Discussion Storm News and Storm Chasing Reports Tropical Cyclones / Hurricanes / Typhoons Weather Data and Links Wild Fires / Bushfires Weather Observation Techniques Weather Picture Catalogue Tornado Pictures and Reports Stock Video Footage and DVDs for sale
Season 1971-1972 Tropical Cyclone ANGELA Track Map
Season 1971-1972 Summaries: [BoM-AU] [JTWC-AU] [JTWC-SIO] [JTWC-SPAC] [JTWC-SH]
<<- Previous TC | BoM 1971-1972 Season | Next TC ->>

click for intensity scale information  Lat/long Grid: Show Hide

 Date Labels: Show Hide

Bureau of Meteorology Tropical Cyclone Data

Name: ANGELA
Number: 491 / 197172_12

29 Feb 1972 00:00 UTC to 03 Mar 1972 00:00 UTC

    date/time    lat    long    hPa   cat  kts
1972-02-29 00    8.0    97.0   1004                     
1972-02-29 03    8.4    97.4   1004                     
1972-02-29 06    8.7    97.7   1004                     
1972-02-29 09    9.1    98.1   1003                     
1972-02-29 12    9.5    98.5   1003                     
1972-02-29 15    9.9    98.9   1003                     
1972-02-29 18   10.3    99.3   1002                     
1972-02-29 21   10.6    99.6   1002                     
1972-03-01 00   11.0   100.0   1002                     
1972-03-01 03   11.3   100.6   1001                     
1972-03-01 06   11.5   101.3   1000                     
1972-03-01 09   11.7   101.9    999                     
1972-03-01 12   12.0   102.5    998                     
1972-03-01 15   12.3   103.1    997                     
1972-03-01 18   12.5   103.7    996                     
1972-03-01 21   12.7   104.4    995    1                
1972-03-02 00   12.9   104.9    994    1                
1972-03-02 03   13.0   105.6    994    1                
1972-03-02 06   13.0   106.2    994    1                
1972-03-02 09   13.1   106.8    995    1                
1972-03-02 12   13.1   107.4    995    1                
1972-03-02 15   13.2   108.0    995    1                
1972-03-02 18   13.2   108.7    996                     
1972-03-02 21   13.3   109.3    996                     
1972-03-03 00   13.3   109.8    996                     
Winds are 10-min average.

Tropical cyclone tracks developed by Michael Bath using data from the Bureau of Meteorology and Google Maps.


[Australian Severe Weather index] [Copyright Notice] [Email Contacts] [Search This Site] [Privacy Policy]
Document: tropical_cyclone_angela.htm Updated: 30 May 2013